Time;durP1;ratioP1;P1;durP2;ratioP2;P2;SDS_P1;SDS_P2;PMS_P1;PMS_P2;Temp;Humidity;BMP_temperature;BMP_pressure;BME280_temperature;BME280_humidity;BME280_pressure;Samples;Min_cycle;Max_cycle;Signal;HPM_P1;HPM_P2
2022/10/21 00:00:15;;;;;;;16.13;8.40;;;;;;;;;;4993320;28;20417;-81
2022/10/21 00:02:44;;;;;;;13.60;8.98;;;;;;;;;;4982981;28;20026;-81
2022/10/21 00:05:10;;;;;;;13.05;8.07;;;;;;;;;;4983022;28;20029;-82
2022/10/21 00:07:35;;;;;;;14.85;8.85;;;;;;;;;;4986893;28;20031;-81
2022/10/21 00:10:00;;;;;;;15.80;8.52;;;;;;;;;;4989163;28;20027;-81
2022/10/21 00:12:30;;;;;;;12.10;8.57;;;;;;;;;;4988312;28;20061;-81
2022/10/21 00:14:55;;;;;;;13.45;8.45;;;;;;;;;;4970395;28;20030;-82
2022/10/21 00:17:20;;;;;;;13.52;8.98;;;;;;;;;;4985505;28;20077;-82
2022/10/21 00:19:46;;;;;;;15.70;8.60;;;;;;;;;;4970622;28;20033;-82
2022/10/21 00:22:11;;;;;;;16.73;8.90;;;;;;;;;;4984608;28;20026;-82
2022/10/21 00:24:37;;;;;;;14.18;8.63;;;;;;;;;;4984757;28;20482;-82
2022/10/21 00:27:02;;;;;;;13.25;8.32;;;;;;;;;;4976934;28;20505;-82
2022/10/21 00:29:28;;;;;;;13.82;8.88;;;;;;;;;;4988622;28;20026;-81
2022/10/21 00:31:54;;;;;;;11.27;8.35;;;;;;;;;;4993531;28;20402;-81
2022/10/21 00:34:20;;;;;;;13.93;7.85;;;;;;;;;;4987610;28;20050;-82
2022/10/21 00:36:46;;;;;;;11.77;7.97;;;;;;;;;;4973221;28;20054;-81
2022/10/21 00:39:11;;;;;;;14.98;8.13;;;;;;;;;;4988456;28;20096;-81
2022/10/21 00:41:36;;;;;;;14.40;8.27;;;;;;;;;;4988279;28;20034;-82
2022/10/21 00:44:10;;;;;;;11.35;8.02;;;;;;;;;;4972685;28;20031;-81
2022/10/21 00:46:51;;;;;;;11.93;8.35;;;;;;;;;;4983584;28;20478;-82
2022/10/21 00:49:22;;;;;;;11.32;8.23;;;;;;;;;;4978930;28;20430;-81
2022/10/21 00:51:53;;;;;;;13.73;8.98;;;;;;;;;;4973204;28;20050;-82
2022/10/21 00:54:21;;;;;;;12.13;8.07;;;;;;;;;;4967936;28;20033;-81
2022/10/21 00:56:48;;;;;;;11.95;8.23;;;;;;;;;;4983881;28;20046;-81
2022/10/21 00:59:14;;;;;;;14.40;7.97;;;;;;;;;;4988239;28;20542;-81
2022/10/21 01:01:39;;;;;;;11.60;8.45;;;;;;;;;;4970852;28;20414;-82
2022/10/21 01:04:05;;;;;;;14.13;8.48;;;;;;;;;;4985665;28;20034;-81
2022/10/21 01:06:31;;;;;;;14.70;9.02;;;;;;;;;;4987304;28;20045;-82
2022/10/21 01:08:58;;;;;;;12.35;8.38;;;;;;;;;;4984415;28;20032;-81
2022/10/21 01:11:25;;;;;;;13.98;8.52;;;;;;;;;;4987086;28;20031;-81
2022/10/21 01:14:28;;;;;;;12.55;7.95;;;;;;;;;;4972517;28;20029;-81
2022/10/21 01:17:06;;;;;;;12.97;7.80;;;;;;;;;;4987156;28;20077;-81
2022/10/21 01:20:03;;;;;;;15.32;7.90;;;;;;;;;;4989632;28;20366;-81
2022/10/21 01:23:02;;;;;;;13.63;8.35;;;;;;;;;;4984245;28;20037;-81
2022/10/21 01:25:49;;;;;;;15.45;9.07;;;;;;;;;;4991014;28;20022;-81
2022/10/21 01:29:06;;;;;;;15.48;8.05;;;;;;;;;;4974489;28;20034;-81
2022/10/21 01:31:59;;;;;;;12.10;7.85;;;;;;;;;;4974685;28;20044;-81
2022/10/21 01:34:36;;;;;;;11.73;7.60;;;;;;;;;;4986826;28;20053;-82
2022/10/21 01:37:14;;;;;;;12.50;7.65;;;;;;;;;;4975682;28;20510;-81
2022/10/21 01:40:04;;;;;;;12.70;8.00;;;;;;;;;;4972414;28;20433;-82
2022/10/21 01:42:42;;;;;;;13.15;7.93;;;;;;;;;;4968735;28;20110;-81
2022/10/21 01:45:19;;;;;;;14.15;7.55;;;;;;;;;;4971713;28;20501;-81
2022/10/21 01:48:11;;;;;;;12.18;8.18;;;;;;;;;;4990706;28;20439;-81
2022/10/21 01:50:42;;;;;;;12.60;7.63;;;;;;;;;;4987520;28;20030;-82
2022/10/21 01:53:11;;;;;;;12.68;7.75;;;;;;;;;;4981171;28;20034;-81
2022/10/21 01:55:39;;;;;;;13.57;7.32;;;;;;;;;;4983896;28;20038;-82
2022/10/21 01:58:10;;;;;;;10.93;7.25;;;;;;;;;;4987228;28;20466;-81
2022/10/21 02:00:36;;;;;;;10.80;7.50;;;;;;;;;;4986547;28;20030;-82
2022/10/21 02:03:07;;;;;;;9.88;7.03;;;;;;;;;;4974066;28;20057;-82
2022/10/21 02:05:34;;;;;;;12.70;7.63;;;;;;;;;;4984831;28;20026;-81
2022/10/21 02:08:00;;;;;;;10.05;7.45;;;;;;;;;;4972215;28;20133;-81
2022/10/21 02:10:30;;;;;;;11.18;7.38;;;;;;;;;;4987089;28;20549;-81
2022/10/21 02:12:58;;;;;;;13.30;7.82;;;;;;;;;;4987577;28;20030;-81
2022/10/21 02:15:24;;;;;;;11.48;7.13;;;;;;;;;;4991051;28;20030;-83
2022/10/21 02:17:56;;;;;;;12.13;7.35;;;;;;;;;;4983830;28;20415;-81
2022/10/21 02:20:26;;;;;;;16.55;7.95;;;;;;;;;;4986999;28;20475;-82
2022/10/21 02:22:52;;;;;;;12.70;6.88;;;;;;;;;;4986923;28;20027;-82
2022/10/21 02:25:25;;;;;;;12.60;7.70;;;;;;;;;;4971960;28;20037;-82
2022/10/21 02:27:51;;;;;;;10.23;7.30;;;;;;;;;;4983626;28;20034;-82
2022/10/21 02:30:17;;;;;;;12.43;7.22;;;;;;;;;;4973605;28;20045;-81
2022/10/21 02:33:14;;;;;;;9.45;6.85;;;;;;;;;;4986056;28;20034;-81
2022/10/21 02:36:09;;;;;;;13.27;6.78;;;;;;;;;;4980715;28;20069;-82
2022/10/21 02:38:48;;;;;;;10.63;7.18;;;;;;;;;;4987231;28;20027;-82
2022/10/21 02:41:19;;;;;;;12.52;7.45;;;;;;;;;;4987324;28;20566;-81
2022/10/21 02:43:50;;;;;;;14.40;7.88;;;;;;;;;;4985804;28;20445;-82
2022/10/21 02:46:16;;;;;;;13.20;7.70;;;;;;;;;;4975991;28;20057;-81
2022/10/21 02:48:46;;;;;;;9.77;6.72;;;;;;;;;;4982322;28;20484;-81
2022/10/21 02:51:12;;;;;;;12.18;7.00;;;;;;;;;;4988978;28;20061;-81
2022/10/21 02:53:38;;;;;;;11.73;6.97;;;;;;;;;;4986037;28;20250;-81
2022/10/21 02:56:04;;;;;;;12.52;6.97;;;;;;;;;;4976721;28;20065;-81
2022/10/21 02:58:29;;;;;;;11.00;6.68;;;;;;;;;;4986230;28;20034;-82
2022/10/21 03:00:55;;;;;;;12.02;7.55;;;;;;;;;;4971227;28;20030;-81
2022/10/21 03:03:20;;;;;;;13.15;7.00;;;;;;;;;;4985889;28;20041;-81
2022/10/21 03:05:46;;;;;;;9.75;6.75;;;;;;;;;;4971829;28;20041;-82
2022/10/21 03:08:11;;;;;;;10.65;6.30;;;;;;;;;;4984071;28;20030;-81
2022/10/21 03:10:37;;;;;;;9.68;6.70;;;;;;;;;;4987804;28;20054;-81
2022/10/21 03:13:03;;;;;;;12.35;6.65;;;;;;;;;;4987266;28;20038;-82
2022/10/21 03:15:28;;;;;;;9.48;6.28;;;;;;;;;;4968846;28;20026;-82
2022/10/21 03:17:53;;;;;;;11.75;7.15;;;;;;;;;;4980966;28;20186;-81
2022/10/21 03:20:19;;;;;;;10.90;6.40;;;;;;;;;;4987216;28;20034;-81
2022/10/21 03:22:44;;;;;;;10.73;6.68;;;;;;;;;;4964716;28;20042;-82
2022/10/21 03:25:10;;;;;;;15.05;6.82;;;;;;;;;;4988767;28;20429;-81
2022/10/21 03:27:36;;;;;;;11.60;6.68;;;;;;;;;;4987100;28;20033;-82
2022/10/21 03:30:04;;;;;;;10.10;6.30;;;;;;;;;;4983349;28;20058;-81
2022/10/21 03:32:29;;;;;;;13.35;6.70;;;;;;;;;;4971340;28;20034;-81
2022/10/21 03:34:55;;;;;;;9.32;6.20;;;;;;;;;;4984037;28;20402;-81
2022/10/21 03:37:21;;;;;;;10.60;6.13;;;;;;;;;;4969609;28;20025;-81
2022/10/21 03:39:46;;;;;;;10.75;6.53;;;;;;;;;;4971254;28;20037;-82
2022/10/21 03:42:11;;;;;;;10.35;6.15;;;;;;;;;;4988483;28;20053;-81
2022/10/21 03:44:37;;;;;;;11.10;6.15;;;;;;;;;;4983902;28;20034;-81
2022/10/21 03:47:02;;;;;;;11.75;6.10;;;;;;;;;;4989885;28;20033;-81
2022/10/21 03:49:28;;;;;;;11.60;6.45;;;;;;;;;;4983333;28;20041;-82
2022/10/21 03:51:53;;;;;;;13.48;6.07;;;;;;;;;;4988398;28;20036;-81
2022/10/21 03:54:18;;;;;;;10.85;6.18;;;;;;;;;;4971865;28;20482;-82
2022/10/21 03:56:45;;;;;;;12.48;6.00;;;;;;;;;;4985600;28;20030;-82
2022/10/21 03:59:10;;;;;;;13.88;6.13;;;;;;;;;;4975286;28;20030;-82
2022/10/21 04:01:36;;;;;;;9.23;6.10;;;;;;;;;;4988233;28;20038;-81
2022/10/21 04:04:01;;;;;;;12.57;5.88;;;;;;;;;;4985093;28;20080;-81
2022/10/21 04:06:27;;;;;;;11.05;6.00;;;;;;;;;;4980914;28;20089;-81
2022/10/21 04:08:52;;;;;;;9.57;5.45;;;;;;;;;;4986881;28;20081;-82
2022/10/21 04:11:17;;;;;;;10.18;5.72;;;;;;;;;;4986388;28;20572;-81
2022/10/21 04:13:43;;;;;;;10.13;5.80;;;;;;;;;;4983616;28;20113;-82
2022/10/21 04:16:13;;;;;;;8.95;5.35;;;;;;;;;;4986527;28;20410;-81
2022/10/21 04:18:38;;;;;;;9.85;6.13;;;;;;;;;;4976349;28;20025;-81
2022/10/21 04:21:04;;;;;;;11.38;5.47;;;;;;;;;;4987809;28;20026;-82
2022/10/21 04:23:29;;;;;;;7.63;5.30;;;;;;;;;;4969497;28;20732;-81
2022/10/21 04:25:54;;;;;;;8.20;5.43;;;;;;;;;;4986105;28;20030;-82
2022/10/21 04:28:20;;;;;;;9.35;5.22;;;;;;;;;;4984528;28;20136;-82
2022/10/21 04:30:45;;;;;;;11.07;5.00;;;;;;;;;;4981950;28;20030;-81
2022/10/21 04:33:11;;;;;;;8.32;5.38;;;;;;;;;;4988986;28;20586;-81
2022/10/21 04:35:38;;;;;;;8.05;5.18;;;;;;;;;;4985190;28;20715;-81
2022/10/21 04:38:04;;;;;;;8.07;5.13;;;;;;;;;;4989932;28;20109;-82
2022/10/21 04:40:29;;;;;;;9.48;5.22;;;;;;;;;;4986016;28;20507;-82
2022/10/21 04:42:55;;;;;;;7.07;4.63;;;;;;;;;;4971241;28;20030;-81
2022/10/21 04:45:20;;;;;;;8.23;4.93;;;;;;;;;;4987461;28;20050;-81
2022/10/21 04:47:45;;;;;;;9.20;5.00;;;;;;;;;;4988212;28;20104;-81
2022/10/21 04:50:11;;;;;;;8.90;4.97;;;;;;;;;;4984030;28;20049;-81
2022/10/21 04:52:36;;;;;;;8.00;5.15;;;;;;;;;;4988759;28;20026;-82
2022/10/21 04:55:02;;;;;;;8.35;4.88;;;;;;;;;;4986864;28;20145;-81
2022/10/21 04:57:27;;;;;;;9.38;4.60;;;;;;;;;;4986040;28;20026;-81
2022/10/21 04:59:53;;;;;;;8.45;4.80;;;;;;;;;;4985866;28;20030;-81
2022/10/21 05:02:18;;;;;;;9.20;5.22;;;;;;;;;;4968888;28;20057;-81
2022/10/21 05:04:44;;;;;;;8.73;4.65;;;;;;;;;;4972010;28;20494;-81
2022/10/21 05:07:09;;;;;;;9.07;4.75;;;;;;;;;;4985819;28;20037;-82
2022/10/21 05:09:35;;;;;;;9.07;4.97;;;;;;;;;;4985708;28;20030;-82
2022/10/21 05:12:00;;;;;;;13.45;5.25;;;;;;;;;;4962933;28;20042;-82
2022/10/21 05:14:26;;;;;;;7.70;4.85;;;;;;;;;;4986216;28;20041;-81
2022/10/21 05:16:51;;;;;;;7.57;5.03;;;;;;;;;;4968655;28;20431;-82
2022/10/21 05:19:17;;;;;;;7.38;4.72;;;;;;;;;;4991217;28;20037;-81
2022/10/21 05:21:42;;;;;;;10.55;5.15;;;;;;;;;;4969121;28;20041;-82
2022/10/21 05:24:08;;;;;;;9.75;5.13;;;;;;;;;;4984710;28;20112;-81
2022/10/21 05:26:34;;;;;;;7.30;4.78;;;;;;;;;;4990089;28;20037;-82
2022/10/21 05:28:59;;;;;;;8.48;4.38;;;;;;;;;;4986751;28;20030;-82
2022/10/21 05:31:25;;;;;;;9.98;4.95;;;;;;;;;;4968981;28;20117;-81
2022/10/21 05:33:51;;;;;;;9.73;5.00;;;;;;;;;;4985499;28;20071;-81
2022/10/21 05:36:16;;;;;;;8.38;4.90;;;;;;;;;;4985569;28;20033;-81
2022/10/21 05:38:41;;;;;;;8.82;4.63;;;;;;;;;;4986725;28;20471;-81
2022/10/21 05:41:09;;;;;;;9.18;4.20;;;;;;;;;;4991495;28;20506;-81
2022/10/21 05:43:35;;;;;;;7.85;4.70;;;;;;;;;;4988961;28;20168;-82
2022/10/21 05:46:01;;;;;;;7.95;4.70;;;;;;;;;;4987234;28;20113;-82
2022/10/21 05:48:26;;;;;;;10.57;4.45;;;;;;;;;;4990560;28;20077;-81
2022/10/21 05:50:53;;;;;;;8.57;5.15;;;;;;;;;;4971633;28;20045;-81
2022/10/21 05:53:19;;;;;;;7.63;4.82;;;;;;;;;;4970387;28;20068;-81
2022/10/21 05:55:44;;;;;;;12.60;4.57;;;;;;;;;;4984087;28;20041;-83
2022/10/21 05:58:10;;;;;;;8.60;5.00;;;;;;;;;;4971754;28;20030;-81
2022/10/21 06:00:35;;;;;;;7.60;4.90;;;;;;;;;;4979628;28;20151;-82
2022/10/21 06:03:01;;;;;;;8.68;4.50;;;;;;;;;;4988765;28;20061;-82
2022/10/21 06:05:26;;;;;;;6.65;4.43;;;;;;;;;;4992665;28;20119;-82
2022/10/21 06:07:52;;;;;;;8.30;4.57;;;;;;;;;;4986846;28;20038;-82
2022/10/21 06:10:17;;;;;;;7.82;4.90;;;;;;;;;;4989614;28;20148;-82
2022/10/21 06:12:43;;;;;;;10.35;4.95;;;;;;;;;;4978225;28;20030;-82
2022/10/21 06:15:09;;;;;;;10.55;4.35;;;;;;;;;;4990831;28;20500;-82
2022/10/21 06:17:34;;;;;;;6.60;4.30;;;;;;;;;;4991870;28;20037;-82
2022/10/21 06:20:00;;;;;;;7.07;4.30;;;;;;;;;;4996794;28;20034;-82
2022/10/21 06:22:27;;;;;;;7.20;4.38;;;;;;;;;;4990507;28;20482;-83
2022/10/21 06:24:52;;;;;;;7.65;4.20;;;;;;;;;;4989613;28;20480;-82
2022/10/21 06:27:17;;;;;;;7.68;4.05;;;;;;;;;;4986372;28;20030;-82
2022/10/21 06:29:43;;;;;;;8.20;4.78;;;;;;;;;;4997046;28;20471;-83
2022/10/21 06:32:08;;;;;;;8.73;4.60;;;;;;;;;;4978714;28;20022;-83
2022/10/21 06:34:34;;;;;;;9.43;4.70;;;;;;;;;;4984441;28;20064;-82
2022/10/21 06:36:59;;;;;;;9.77;4.85;;;;;;;;;;4987017;28;20034;-82
2022/10/21 06:39:24;;;;;;;7.85;4.32;;;;;;;;;;4989720;28;20633;-81
2022/10/21 06:41:50;;;;;;;6.90;4.30;;;;;;;;;;4989913;28;20034;-82
2022/10/21 06:44:15;;;;;;;8.07;4.60;;;;;;;;;;4973884;28;20027;-82
2022/10/21 06:46:41;;;;;;;8.10;4.20;;;;;;;;;;4988868;28;20390;-82
2022/10/21 06:49:06;;;;;;;7.13;4.25;;;;;;;;;;4994175;28;20072;-82
2022/10/21 06:51:32;;;;;;;10.32;4.30;;;;;;;;;;4988883;28;20038;-82
2022/10/21 06:53:58;;;;;;;7.90;4.80;;;;;;;;;;4974194;28;20035;-82
2022/10/21 06:56:25;;;;;;;7.70;4.53;;;;;;;;;;4973507;28;20030;-82
2022/10/21 06:58:51;;;;;;;6.78;4.10;;;;;;;;;;4990789;28;20117;-82
2022/10/21 07:01:23;;;;;;;8.90;4.32;;;;;;;;;;4988686;28;20495;-82
2022/10/21 07:03:52;;;;;;;7.88;4.43;;;;;;;;;;4986749;28;20026;-82
2022/10/21 07:06:18;;;;;;;7.45;4.65;;;;;;;;;;4971914;28;20375;-82
2022/10/21 07:08:44;;;;;;;9.52;4.93;;;;;;;;;;4991350;28;20088;-83
2022/10/21 07:11:13;;;;;;;10.38;4.47;;;;;;;;;;4993675;28;20042;-82
2022/10/21 07:13:39;;;;;;;10.55;4.50;;;;;;;;;;4987721;28;20444;-82
2022/10/21 07:16:07;;;;;;;8.75;4.47;;;;;;;;;;4985058;28;20133;-82
2022/10/21 07:18:34;;;;;;;8.43;4.68;;;;;;;;;;4977957;28;20026;-82
2022/10/21 07:21:12;;;;;;;7.97;5.13;;;;;;;;;;4975358;28;22130;-82
2022/10/21 07:23:38;;;;;;;7.40;4.45;;;;;;;;;;4989535;28;20049;-82
2022/10/21 07:26:06;;;;;;;9.05;4.38;;;;;;;;;;4989847;28;20462;-82
2022/10/21 07:28:34;;;;;;;8.48;4.63;;;;;;;;;;4995044;28;20026;-82
2022/10/21 07:30:59;;;;;;;9.90;4.70;;;;;;;;;;4994542;28;20030;-82
2022/10/21 07:33:27;;;;;;;9.40;4.28;;;;;;;;;;4974591;28;20561;-82
2022/10/21 07:36:15;;;;;;;8.30;4.50;;;;;;;;;;4987830;28;20046;-82
2022/10/21 07:38:45;;;;;;;8.00;4.40;;;;;;;;;;4983545;28;20042;-82
2022/10/21 07:41:34;;;;;;;7.32;4.30;;;;;;;;;;4972336;28;21329;-82
2022/10/21 07:44:00;;;;;;;7.47;4.20;;;;;;;;;;4987685;28;20034;-82
2022/10/21 07:46:26;;;;;;;6.50;4.38;;;;;;;;;;4966875;28;20085;-82
2022/10/21 07:48:51;;;;;;;6.90;4.13;;;;;;;;;;4975980;28;20054;-82
2022/10/21 07:51:20;;;;;;;8.38;4.50;;;;;;;;;;4985694;28;20034;-82
2022/10/21 07:53:47;;;;;;;8.63;4.43;;;;;;;;;;4986366;28;20610;-83
2022/10/21 07:56:19;;;;;;;8.25;4.22;;;;;;;;;;4984100;28;20030;-83
2022/10/21 07:58:45;;;;;;;8.15;4.43;;;;;;;;;;4970081;28;20026;-82
2022/10/21 08:01:12;;;;;;;8.20;4.35;;;;;;;;;;4987951;28;20061;-83
2022/10/21 08:03:38;;;;;;;7.45;4.60;;;;;;;;;;4983848;28;20121;-82
2022/10/21 08:06:05;;;;;;;8.02;4.60;;;;;;;;;;4982217;28;20133;-82
2022/10/21 08:08:30;;;;;;;8.43;4.97;;;;;;;;;;4966333;28;20564;-82
2022/10/21 08:10:56;;;;;;;7.35;4.25;;;;;;;;;;4986328;28;20026;-84
2022/10/21 08:13:22;;;;;;;10.00;4.57;;;;;;;;;;4971953;28;20037;-82
2022/10/21 08:15:50;;;;;;;8.93;4.20;;;;;;;;;;4987132;28;20029;-82
2022/10/21 08:18:16;;;;;;;9.25;4.50;;;;;;;;;;4969453;28;20080;-82
2022/10/21 08:20:43;;;;;;;8.35;4.97;;;;;;;;;;4987976;28;20422;-83
2022/10/21 08:23:09;;;;;;;8.68;4.70;;;;;;;;;;4985844;28;20030;-82
2022/10/21 08:25:35;;;;;;;9.75;4.95;;;;;;;;;;4990314;28;20371;-82
2022/10/21 08:28:02;;;;;;;8.95;4.97;;;;;;;;;;4991647;28;20026;-82
2022/10/21 08:30:30;;;;;;;7.63;4.75;;;;;;;;;;4987707;28;20030;-82
2022/10/21 08:32:57;;;;;;;8.18;4.93;;;;;;;;;;4990698;28;20088;-82
2022/10/21 08:35:22;;;;;;;7.75;5.15;;;;;;;;;;4993137;28;20379;-82
2022/10/21 08:37:48;;;;;;;8.90;4.88;;;;;;;;;;4989532;28;20061;-83
2022/10/21 08:40:14;;;;;;;12.90;4.90;;;;;;;;;;4989687;28;20026;-82
2022/10/21 08:42:44;;;;;;;10.82;4.88;;;;;;;;;;4990088;28;20414;-82
2022/10/21 08:45:22;;;;;;;8.27;4.75;;;;;;;;;;4986125;28;20033;-82
2022/10/21 08:47:53;;;;;;;8.20;4.72;;;;;;;;;;4968169;28;20064;-82
2022/10/21 08:50:26;;;;;;;9.77;4.47;;;;;;;;;;4989751;28;20071;-82
2022/10/21 08:53:03;;;;;;;9.77;4.80;;;;;;;;;;4985343;28;20394;-82
2022/10/21 08:55:35;;;;;;;7.63;4.65;;;;;;;;;;4988673;28;20042;-84
2022/10/21 08:58:02;;;;;;;12.50;4.75;;;;;;;;;;4978842;28;20117;-83
2022/10/21 09:00:47;;;;;;;9.90;5.18;;;;;;;;;;4983811;28;20498;-83
2022/10/21 09:03:40;;;;;;;8.70;4.95;;;;;;;;;;4985994;28;20039;-83
2022/10/21 09:06:06;;;;;;;10.43;5.63;;;;;;;;;;4979787;28;20057;-82
2022/10/21 09:08:42;;;;;;;7.63;4.70;;;;;;;;;;4958994;28;20041;-83
2022/10/21 09:11:40;;;;;;;8.80;5.50;;;;;;;;;;4965443;28;20084;-83
2022/10/21 09:14:24;;;;;;;8.43;5.13;;;;;;;;;;4983136;28;20030;-82
2022/10/21 09:17:04;;;;;;;9.38;5.57;;;;;;;;;;4981793;28;20061;-83
2022/10/21 09:19:52;;;;;;;11.32;6.00;;;;;;;;;;4971505;28;20418;-83
2022/10/21 09:22:56;;;;;;;10.20;5.57;;;;;;;;;;4994484;28;20026;-83
2022/10/21 09:25:29;;;;;;;9.25;5.18;;;;;;;;;;4934475;28;20069;-82
2022/10/21 09:27:55;;;;;;;9.35;5.15;;;;;;;;;;4985393;28;20131;-82
2022/10/21 09:30:21;;;;;;;10.48;5.72;;;;;;;;;;4986976;28;20030;-82
2022/10/21 09:32:51;;;;;;;12.40;5.05;;;;;;;;;;4987857;28;20119;-82
2022/10/21 09:35:23;;;;;;;7.45;4.97;;;;;;;;;;4987302;28;20046;-82
2022/10/21 09:37:56;;;;;;;11.43;4.82;;;;;;;;;;4970067;28;20113;-83
2022/10/21 09:40:27;;;;;;;8.65;5.38;;;;;;;;;;4994663;28;20487;-83
2022/10/21 09:42:55;;;;;;;7.72;4.82;;;;;;;;;;4992001;28;20486;-82
2022/10/21 09:45:27;;;;;;;9.60;5.32;;;;;;;;;;4993947;28;20022;-83
2022/10/21 09:47:57;;;;;;;14.33;5.47;;;;;;;;;;4993604;28;20038;-83
2022/10/21 09:50:23;;;;;;;8.70;4.97;;;;;;;;;;4988027;28;20391;-83
2022/10/21 09:52:56;;;;;;;9.05;5.18;;;;;;;;;;4978125;28;20046;-83
2022/10/21 09:55:23;;;;;;;10.68;4.80;;;;;;;;;;4987381;28;20037;-82
2022/10/21 09:57:55;;;;;;;11.77;4.70;;;;;;;;;;4988393;28;20124;-82
2022/10/21 10:00:20;;;;;;;7.75;4.85;;;;;;;;;;4972835;28;20518;-82
2022/10/21 10:02:47;;;;;;;10.95;4.30;;;;;;;;;;4988942;28;20076;-82
2022/10/21 10:05:47;;;;;;;8.98;4.50;;;;;;;;;;4975177;28;20069;-83
2022/10/21 10:08:21;;;;;;;8.98;4.05;;;;;;;;;;4989995;28;20445;-82
2022/10/21 10:10:46;;;;;;;6.75;4.40;;;;;;;;;;4989984;28;20430;-83
2022/10/21 10:13:17;;;;;;;9.38;4.40;;;;;;;;;;4999996;28;20026;-82
2022/10/21 10:15:43;;;;;;;7.22;4.13;;;;;;;;;;4993214;28;20033;-82
2022/10/21 10:18:21;;;;;;;5.80;3.95;;;;;;;;;;4989501;28;20030;-82
2022/10/21 10:21:04;;;;;;;7.78;3.83;;;;;;;;;;4984621;28;20499;-82
2022/10/21 10:23:29;;;;;;;6.32;3.97;;;;;;;;;;4990330;28;20426;-82
2022/10/21 10:25:55;;;;;;;7.13;3.47;;;;;;;;;;4989242;28;20034;-82
2022/10/21 10:28:24;;;;;;;9.23;3.58;;;;;;;;;;4988754;28;20307;-82
2022/10/21 10:30:53;;;;;;;5.90;3.35;;;;;;;;;;4991020;28;20113;-82
2022/10/21 10:33:30;;;;;;;9.15;3.65;;;;;;;;;;4991098;28;20032;-82
2022/10/21 10:36:05;;;;;;;8.27;3.97;;;;;;;;;;4993899;28;20053;-82
2022/10/21 10:38:41;;;;;;;9.25;4.05;;;;;;;;;;4975284;28;20022;-83
2022/10/21 10:41:12;;;;;;;8.07;4.20;;;;;;;;;;4975836;28;20034;-82
2022/10/21 10:43:48;;;;;;;8.27;4.13;;;;;;;;;;4971542;28;20030;-82
2022/10/21 10:46:25;;;;;;;6.53;3.80;;;;;;;;;;4979282;28;20081;-82
2022/10/21 10:48:52;;;;;;;7.43;4.05;;;;;;;;;;4992480;28;20042;-82
2022/10/21 10:51:34;;;;;;;7.45;3.92;;;;;;;;;;4990420;28;20493;-83
2022/10/21 10:54:06;;;;;;;7.67;4.33;;;;;;;;;;4992938;28;20026;-82
2022/10/21 10:56:41;;;;;;;8.70;4.60;;;;;;;;;;4996023;28;20052;-83
2022/10/21 10:59:21;;;;;;;11.63;4.80;;;;;;;;;;4989316;28;20038;-82
2022/10/21 11:02:19;;;;;;;9.27;4.78;;;;;;;;;;4983106;28;20490;-83
2022/10/21 11:05:07;;;;;;;10.05;5.13;;;;;;;;;;4969156;28;20125;-82
2022/10/21 11:07:41;;;;;;;9.35;4.93;;;;;;;;;;4975246;28;20031;-82
2022/10/21 11:10:24;;;;;;;9.27;4.25;;;;;;;;;;4977271;28;20026;-82
2022/10/21 11:12:50;;;;;;;8.65;4.60;;;;;;;;;;4989655;28;20034;-81
2022/10/21 11:15:15;;;;;;;7.82;3.95;;;;;;;;;;4985757;28;20060;-83
2022/10/21 11:17:52;;;;;;;7.85;4.15;;;;;;;;;;4992393;28;20031;-83
2022/10/21 11:20:46;;;;;;;8.60;4.32;;;;;;;;;;4991060;28;20565;-82
2022/10/21 11:23:20;;;;;;;5.85;3.53;;;;;;;;;;4991136;28;20037;-82
2022/10/21 11:25:52;;;;;;;6.45;3.80;;;;;;;;;;4974393;28;20113;-81
2022/10/21 11:29:16;;;;;;;8.82;3.50;;;;;;;;;;4975213;28;20030;-82
2022/10/21 11:32:29;;;;;;;7.88;3.30;;;;;;;;;;4920940;29;20087;-82
2022/10/21 11:35:10;;;;;;;7.03;3.35;;;;;;;;;;4981680;28;20506;-81
2022/10/21 11:38:00;;;;;;;4.28;3.08;;;;;;;;;;4989872;28;20061;-82
2022/10/21 11:40:38;;;;;;;7.93;2.80;;;;;;;;;;4973629;28;20026;-81
2022/10/21 11:43:31;;;;;;;5.22;2.70;;;;;;;;;;4990640;28;20061;-82
2022/10/21 11:46:14;;;;;;;5.82;2.22;;;;;;;;;;4976462;28;20113;-82
2022/10/21 11:48:55;;;;;;;5.10;2.45;;;;;;;;;;4986569;28;20391;-81
2022/10/21 11:51:32;;;;;;;3.85;1.75;;;;;;;;;;4982415;28;20497;-82
2022/10/21 11:54:03;;;;;;;5.72;2.22;;;;;;;;;;4980730;28;20116;-82
2022/10/21 11:56:46;;;;;;;5.10;2.00;;;;;;;;;;4968373;28;20524;-81
2022/10/21 11:59:38;;;;;;;4.57;1.77;;;;;;;;;;4971984;28;20026;-82
2022/10/21 12:02:29;;;;;;;5.80;2.00;;;;;;;;;;4980946;28;20031;-82
2022/10/21 12:05:20;;;;;;;4.70;2.20;;;;;;;;;;4979569;28;20041;-82
2022/10/21 12:08:15;;;;;;;5.82;1.90;;;;;;;;;;4992471;28;20034;-81
2022/10/21 12:10:52;;;;;;;4.93;1.80;;;;;;;;;;4991121;28;20045;-81
2022/10/21 12:13:26;;;;;;;6.95;2.10;;;;;;;;;;4988549;28;20049;-82
2022/10/21 12:15:58;;;;;;;5.43;1.75;;;;;;;;;;4994611;28;20040;-81
2022/10/21 12:18:26;;;;;;;5.85;2.10;;;;;;;;;;4993428;28;20109;-82
2022/10/21 12:20:53;;;;;;;4.45;2.17;;;;;;;;;;4976470;28;20053;-82
2022/10/21 12:23:28;;;;;;;4.50;2.13;;;;;;;;;;4979115;28;21098;-82
2022/10/21 12:26:21;;;;;;;7.70;2.10;;;;;;;;;;4971060;28;20041;-82
2022/10/21 12:29:14;;;;;;;5.32;1.77;;;;;;;;;;4977552;28;20498;-82
2022/10/21 12:31:58;;;;;;;5.03;1.90;;;;;;;;;;4977141;28;20034;-82
2022/10/21 12:34:23;;;;;;;4.63;2.20;;;;;;;;;;4966587;28;20051;-83
2022/10/21 12:36:52;;;;;;;6.28;1.67;;;;;;;;;;4982231;28;20080;-84
2022/10/21 12:39:18;;;;;;;3.70;1.58;;;;;;;;;;4980148;28;20469;-83
2022/10/21 12:41:46;;;;;;;5.45;1.90;;;;;;;;;;4962761;28;20389;-82
2022/10/21 12:44:24;;;;;;;2.78;1.60;;;;;;;;;;4938521;28;20030;-84
2022/10/21 12:46:56;;;;;;;5.85;1.60;;;;;;;;;;4958324;28;20504;-82
2022/10/21 12:49:33;;;;;;;2.90;1.48;;;;;;;;;;4957214;28;20506;-84
2022/10/21 12:52:04;;;;;;;3.22;1.42;;;;;;;;;;4971567;28;20085;-83
2022/10/21 12:54:41;;;;;;;3.40;1.30;;;;;;;;;;4967802;28;20044;-84
2022/10/21 12:57:21;;;;;;;3.67;1.40;;;;;;;;;;4973050;28;20869;-83
2022/10/21 12:59:46;;;;;;;2.85;1.30;;;;;;;;;;4972601;28;20482;-84
2022/10/21 13:02:26;;;;;;;3.25;1.50;;;;;;;;;;4970410;28;20041;-82
2022/10/21 13:04:54;;;;;;;4.75;1.63;;;;;;;;;;4957118;28;20030;-84
2022/10/21 13:07:19;;;;;;;2.95;1.42;;;;;;;;;;4963903;28;20154;-84
2022/10/21 13:09:51;;;;;;;6.18;1.73;;;;;;;;;;4969104;28;20501;-85
2022/10/21 13:12:27;;;;;;;3.80;1.70;;;;;;;;;;4967280;28;20038;-84
2022/10/21 13:15:20;;;;;;;4.55;1.27;;;;;;;;;;4955753;28;20040;-85
2022/10/21 13:17:46;;;;;;;;;;;;;;;;;;4975477;28;20030;-83
2022/10/21 13:20:14;;;;;;;3.47;1.50;;;;;;;;;;4963240;28;19921;-84
2022/10/21 13:22:42;;;;;;;3.67;1.33;;;;;;;;;;4973947;28;20644;-84
2022/10/21 13:25:20;;;;;;;1.80;1.10;;;;;;;;;;4977777;28;20034;-83
2022/10/21 13:28:02;;;;;;;3.30;1.30;;;;;;;;;;4959493;28;20454;-84
2022/10/21 13:30:36;;;;;;;4.95;1.10;;;;;;;;;;4974828;28;20034;-83
2022/10/21 13:33:26;;;;;;;4.13;1.10;;;;;;;;;;4968985;28;20049;-82
2022/10/21 13:35:54;;;;;;;2.35;0.90;;;;;;;;;;4953841;28;20060;-85
2022/10/21 13:38:23;;;;;;;1.80;0.90;;;;;;;;;;4963047;28;20222;-83
2022/10/21 13:41:24;;;;;;;2.08;0.80;;;;;;;;;;4975028;28;20029;-83
2022/10/21 13:43:56;;;;;;;1.88;1.10;;;;;;;;;;4973156;28;20466;-83
2022/10/21 13:46:29;;;;;;;1.73;0.80;;;;;;;;;;4976321;28;20623;-84
2022/10/21 13:48:59;;;;;;;1.48;0.80;;;;;;;;;;4981588;28;20034;-85
2022/10/21 13:51:28;;;;;;;2.50;0.80;;;;;;;;;;4980924;28;20038;-83
2022/10/21 13:53:56;;;;;;;3.30;1.00;;;;;;;;;;4983215;28;20604;-84
2022/10/21 13:56:23;;;;;;;2.88;0.90;;;;;;;;;;4980124;28;20030;-83
2022/10/21 13:58:48;;;;;;;3.25;0.93;;;;;;;;;;4958243;28;20559;-82
2022/10/21 14:01:19;;;;;;;1.25;0.70;;;;;;;;;;4973714;28;20053;-84
2022/10/21 14:03:45;;;;;;;1.30;0.70;;;;;;;;;;4951792;28;20272;-84
2022/10/21 14:06:18;;;;;;;2.25;0.90;;;;;;;;;;4973630;28;20146;-85
2022/10/21 14:08:46;;;;;;;2.45;0.90;;;;;;;;;;4980519;28;20033;-83
2022/10/21 14:11:26;;;;;;;2.00;1.00;;;;;;;;;;4959932;28;20116;-84
2022/10/21 14:13:54;;;;;;;1.00;0.70;;;;;;;;;;4968507;28;20328;-84
2022/10/21 14:16:34;;;;;;;2.50;0.80;;;;;;;;;;4974041;28;20037;-84
2022/10/21 14:19:05;;;;;;;1.73;0.85;;;;;;;;;;4977755;28;20034;-83
2022/10/21 14:21:35;;;;;;;4.32;0.75;;;;;;;;;;4979542;28;20434;-85
2022/10/21 14:24:01;;;;;;;1.83;0.90;;;;;;;;;;4961158;28;20061;-85
2022/10/21 14:26:30;;;;;;;2.22;0.90;;;;;;;;;;4964963;28;20041;-83
2022/10/21 14:29:01;;;;;;;3.40;0.90;;;;;;;;;;4981562;28;20113;-83
2022/10/21 14:31:27;;;;;;;3.63;1.10;;;;;;;;;;4984898;28;20030;-83
2022/10/21 14:33:52;;;;;;;2.53;0.95;;;;;;;;;;4985522;28;20088;-84
2022/10/21 14:36:24;;;;;;;2.70;1.05;;;;;;;;;;4985311;28;20450;-85
2022/10/21 14:38:59;;;;;;;2.40;0.80;;;;;;;;;;4971775;28;20035;-83
2022/10/21 14:41:34;;;;;;;1.35;0.88;;;;;;;;;;4984038;28;20039;-84
2022/10/21 14:44:16;;;;;;;4.03;0.80;;;;;;;;;;4970098;28;20042;-83
2022/10/21 14:46:44;;;;;;;2.20;1.02;;;;;;;;;;4988048;28;20528;-85
2022/10/21 14:49:28;;;;;;;3.45;1.00;;;;;;;;;;4994142;28;20474;-84
2022/10/21 14:52:03;;;;;;;3.03;1.10;;;;;;;;;;4987981;28;20375;-84
2022/10/21 14:54:38;;;;;;;2.85;0.88;;;;;;;;;;4984303;28;20398;-85
2022/10/21 14:57:04;;;;;;;3.17;1.30;;;;;;;;;;4985203;28;20073;-84
2022/10/21 14:59:36;;;;;;;4.22;1.60;;;;;;;;;;4989333;28;20496;-83
2022/10/21 15:02:04;;;;;;;2.70;1.17;;;;;;;;;;4991002;28;20497;-84